sensor_id;sensor_type;location;lat;lon;timestamp;pressure;altitude;pressure_sealevel;temperature;humidity
72570;BME280;60594;50.204;8.844;2023-07-02T00:02:24;99230.69;;;16.64;98.31
72570;BME280;60594;50.204;8.844;2023-07-02T00:04:51;99225.88;;;16.60;98.60
72570;BME280;60594;50.204;8.844;2023-07-02T00:07:17;99219.63;;;16.59;97.44
72570;BME280;60594;50.204;8.844;2023-07-02T00:09:44;99221.34;;;16.60;96.80
72570;BME280;60594;50.204;8.844;2023-07-02T00:12:10;99219.28;;;16.62;96.83
72570;BME280;60594;50.204;8.844;2023-07-02T00:14:37;99223.16;;;16.60;95.74
72570;BME280;60594;50.204;8.844;2023-07-02T00:17:03;99221.50;;;16.59;96.13
72570;BME280;60594;50.204;8.844;2023-07-02T00:19:30;99216.31;;;16.57;95.86
72570;BME280;60594;50.204;8.844;2023-07-02T00:21:57;99224.09;;;16.52;95.56
72570;BME280;60594;50.204;8.844;2023-07-02T00:24:24;99226.50;;;16.47;96.23
72570;BME280;60594;50.204;8.844;2023-07-02T00:26:50;99219.47;;;16.46;96.07
72570;BME280;60594;50.204;8.844;2023-07-02T00:29:17;99224.66;;;16.48;96.02
72570;BME280;60594;50.204;8.844;2023-07-02T00:31:44;99225.88;;;16.45;96.18
72570;BME280;60594;50.204;8.844;2023-07-02T00:34:10;99227.72;;;16.45;97.32
72570;BME280;60594;50.204;8.844;2023-07-02T00:36:37;99229.56;;;16.44;96.59
72570;BME280;60594;50.204;8.844;2023-07-02T00:39:04;99226.38;;;16.41;96.79
72570;BME280;60594;50.204;8.844;2023-07-02T00:41:30;99226.31;;;16.49;96.22
72570;BME280;60594;50.204;8.844;2023-07-02T00:43:57;99221.28;;;16.46;95.48
72570;BME280;60594;50.204;8.844;2023-07-02T00:46:23;99223.44;;;16.50;96.13
72570;BME280;60594;50.204;8.844;2023-07-02T00:48:54;99221.88;;;16.56;95.07
72570;BME280;60594;50.204;8.844;2023-07-02T00:51:22;99217.13;;;16.58;96.42
72570;BME280;60594;50.204;8.844;2023-07-02T00:53:51;99212.78;;;16.57;99.03
72570;BME280;60594;50.204;8.844;2023-07-02T00:56:18;99215.66;;;16.55;99.43
72570;BME280;60594;50.204;8.844;2023-07-02T00:58:49;99230.09;;;16.40;95.86
72570;BME280;60594;50.204;8.844;2023-07-02T01:01:18;99230.28;;;16.38;97.75
72570;BME280;60594;50.204;8.844;2023-07-02T01:04:04;99234.63;;;16.39;98.01
72570;BME280;60594;50.204;8.844;2023-07-02T01:06:32;99234.72;;;16.31;97.22
72570;BME280;60594;50.204;8.844;2023-07-02T01:09:04;99235.84;;;16.37;96.33
72570;BME280;60594;50.204;8.844;2023-07-02T01:11:40;99238.47;;;16.45;95.19
72570;BME280;60594;50.204;8.844;2023-07-02T01:14:19;99245.88;;;16.43;94.87
72570;BME280;60594;50.204;8.844;2023-07-02T01:16:48;99244.47;;;16.47;94.44
72570;BME280;60594;50.204;8.844;2023-07-02T01:19:42;99242.63;;;16.47;94.46
72570;BME280;60594;50.204;8.844;2023-07-02T01:22:11;99239.81;;;16.41;95.01
72570;BME280;60594;50.204;8.844;2023-07-02T01:24:39;99233.31;;;16.35;93.90
72570;BME280;60594;50.204;8.844;2023-07-02T01:27:06;99229.59;;;16.22;95.34
72570;BME280;60594;50.204;8.844;2023-07-02T01:29:33;99234.56;;;16.25;94.81
72570;BME280;60594;50.204;8.844;2023-07-02T01:32:03;99234.22;;;16.28;94.92
72570;BME280;60594;50.204;8.844;2023-07-02T01:34:29;99239.50;;;16.21;94.75
72570;BME280;60594;50.204;8.844;2023-07-02T01:36:56;99236.59;;;16.08;95.46
72570;BME280;60594;50.204;8.844;2023-07-02T01:39:23;99236.59;;;16.08;95.38
72570;BME280;60594;50.204;8.844;2023-07-02T01:41:51;99244.28;;;16.11;93.92
72570;BME280;60594;50.204;8.844;2023-07-02T01:44:19;99243.34;;;16.04;93.88
72570;BME280;60594;50.204;8.844;2023-07-02T01:46:46;99239.66;;;16.05;93.23
72570;BME280;60594;50.204;8.844;2023-07-02T01:49:16;99243.72;;;16.01;93.33
72570;BME280;60594;50.204;8.844;2023-07-02T01:51:55;99242.19;;;15.99;93.38
72570;BME280;60594;50.204;8.844;2023-07-02T01:54:25;99238.94;;;15.89;93.67
72570;BME280;60594;50.204;8.844;2023-07-02T01:56:56;99239.53;;;15.76;94.10
72570;BME280;60594;50.204;8.844;2023-07-02T01:59:23;99245.38;;;15.80;93.68
72570;BME280;60594;50.204;8.844;2023-07-02T02:01:50;99250.13;;;15.78;92.57
72570;BME280;60594;50.204;8.844;2023-07-02T02:04:17;99251.34;;;15.67;92.50
72570;BME280;60594;50.204;8.844;2023-07-02T02:06:43;99253.69;;;15.70;92.10
72570;BME280;60594;50.204;8.844;2023-07-02T02:09:10;99249.78;;;15.50;92.21
72570;BME280;60594;50.204;8.844;2023-07-02T02:11:40;99251.97;;;15.47;92.13
72570;BME280;60594;50.204;8.844;2023-07-02T02:14:07;99251.50;;;15.43;91.87
72570;BME280;60594;50.204;8.844;2023-07-02T02:16:33;99257.34;;;15.47;92.16
72570;BME280;60594;50.204;8.844;2023-07-02T02:19:01;99258.38;;;15.46;92.09
72570;BME280;60594;50.204;8.844;2023-07-02T02:21:27;99259.69;;;15.50;92.15
72570;BME280;60594;50.204;8.844;2023-07-02T02:23:54;99265.72;;;15.52;91.90
72570;BME280;60594;50.204;8.844;2023-07-02T02:26:22;99255.50;;;15.47;91.72
72570;BME280;60594;50.204;8.844;2023-07-02T02:28:49;99261.53;;;15.49;92.24
72570;BME280;60594;50.204;8.844;2023-07-02T02:31:16;99262.56;;;15.48;91.93
72570;BME280;60594;50.204;8.844;2023-07-02T02:33:43;99266.72;;;15.51;91.38
72570;BME280;60594;50.204;8.844;2023-07-02T02:36:10;99265.59;;;15.45;92.08
72570;BME280;60594;50.204;8.844;2023-07-02T02:38:37;99261.22;;;15.44;92.67
72570;BME280;60594;50.204;8.844;2023-07-02T02:41:04;99257.88;;;15.34;93.50
72570;BME280;60594;50.204;8.844;2023-07-02T02:43:36;99268.50;;;15.36;94.22
72570;BME280;60594;50.204;8.844;2023-07-02T02:46:04;99262.31;;;15.27;93.82
72570;BME280;60594;50.204;8.844;2023-07-02T02:48:31;99261.81;;;15.24;94.24
72570;BME280;60594;50.204;8.844;2023-07-02T02:50:58;99260.28;;;15.29;94.08
72570;BME280;60594;50.204;8.844;2023-07-02T02:53:25;99266.66;;;15.28;93.94
72570;BME280;60594;50.204;8.844;2023-07-02T02:55:51;99266.66;;;15.28;93.86
72570;BME280;60594;50.204;8.844;2023-07-02T02:58:18;99269.00;;;15.31;92.92
72570;BME280;60594;50.204;8.844;2023-07-02T03:00:45;99273.22;;;15.26;92.68
72570;BME280;60594;50.204;8.844;2023-07-02T03:03:12;99274.03;;;15.26;93.20
72570;BME280;60594;50.204;8.844;2023-07-02T03:05:39;99276.88;;;15.33;92.12
72570;BME280;60594;50.204;8.844;2023-07-02T03:08:05;99280.47;;;15.17;91.74
72570;BME280;60594;50.204;8.844;2023-07-02T03:10:32;99278.47;;;15.11;92.05
72570;BME280;60594;50.204;8.844;2023-07-02T03:12:59;99285.84;;;15.17;92.11
72570;BME280;60594;50.204;8.844;2023-07-02T03:15:25;99284.00;;;15.10;91.90
72570;BME280;60594;50.204;8.844;2023-07-02T03:17:52;99285.16;;;15.15;91.22
72570;BME280;60594;50.204;8.844;2023-07-02T03:20:18;99297.59;;;15.16;90.72
72570;BME280;60594;50.204;8.844;2023-07-02T03:22:45;99282.31;;;15.17;90.20
72570;BME280;60594;50.204;8.844;2023-07-02T03:25:11;99289.94;;;15.05;91.48
72570;BME280;60594;50.204;8.844;2023-07-02T03:27:39;99283.50;;;15.14;90.24
72570;BME280;60594;50.204;8.844;2023-07-02T03:30:05;99288.88;;;15.14;89.63
72570;BME280;60594;50.204;8.844;2023-07-02T03:32:32;99288.88;;;15.14;89.37
72570;BME280;60594;50.204;8.844;2023-07-02T03:34:59;99284.19;;;15.16;89.00
72570;BME280;60594;50.204;8.844;2023-07-02T03:37:25;99282.31;;;15.17;88.45
72570;BME280;60594;50.204;8.844;2023-07-02T03:39:52;99289.72;;;15.15;88.47
72570;BME280;60594;50.204;8.844;2023-07-02T03:42:18;99286.53;;;15.11;87.94
72570;BME280;60594;50.204;8.844;2023-07-02T03:44:45;99301.81;;;15.11;88.53
72570;BME280;60594;50.204;8.844;2023-07-02T03:47:12;99298.13;;;15.12;88.33
72570;BME280;60594;50.204;8.844;2023-07-02T03:49:39;99301.63;;;15.12;87.95
72570;BME280;60594;50.204;8.844;2023-07-02T03:52:06;99306.34;;;15.10;87.62
72570;BME280;60594;50.204;8.844;2023-07-02T03:54:35;99307.69;;;15.06;88.09
72570;BME280;60594;50.204;8.844;2023-07-02T03:57:02;99316.38;;;15.08;88.53
72570;BME280;60594;50.204;8.844;2023-07-02T03:59:29;99317.25;;;15.09;88.86
72570;BME280;60594;50.204;8.844;2023-07-02T04:01:55;99313.03;;;15.14;88.50
72570;BME280;60594;50.204;8.844;2023-07-02T04:04:22;99318.56;;;15.13;87.41
72570;BME280;60594;50.204;8.844;2023-07-02T04:06:48;99321.94;;;15.15;87.94
72570;BME280;60594;50.204;8.844;2023-07-02T04:09:15;99326.97;;;15.10;88.02
72570;BME280;60594;50.204;8.844;2023-07-02T04:11:41;99325.47;;;15.07;88.64
72570;BME280;60594;50.204;8.844;2023-07-02T04:14:08;99326.13;;;15.09;88.50
72570;BME280;60594;50.204;8.844;2023-07-02T04:16:34;99328.44;;;15.12;87.96
72570;BME280;60594;50.204;8.844;2023-07-02T04:19:01;99336.50;;;15.12;88.79
72570;BME280;60594;50.204;8.844;2023-07-02T04:21:27;99341.41;;;15.09;88.27
72570;BME280;60594;50.204;8.844;2023-07-02T04:23:54;99340.06;;;15.05;87.96
72570;BME280;60594;50.204;8.844;2023-07-02T04:26:20;99342.25;;;15.01;88.33
72570;BME280;60594;50.204;8.844;2023-07-02T04:28:47;99335.38;;;14.99;87.52
72570;BME280;60594;50.204;8.844;2023-07-02T04:31:13;99342.59;;;14.98;87.34
72570;BME280;60594;50.204;8.844;2023-07-02T04:33:41;99351.81;;;14.96;86.97
72570;BME280;60594;50.204;8.844;2023-07-02T04:36:08;99352.84;;;14.95;87.11
72570;BME280;60594;50.204;8.844;2023-07-02T04:38:35;99348.47;;;14.94;86.89
72570;BME280;60594;50.204;8.844;2023-07-02T04:41:01;99358.19;;;14.95;87.29
72570;BME280;60594;50.204;8.844;2023-07-02T04:43:34;99354.19;;;14.91;87.42
72570;BME280;60594;50.204;8.844;2023-07-02T04:46:00;99355.06;;;14.83;88.28
72570;BME280;60594;50.204;8.844;2023-07-02T04:48:28;99343.28;;;14.92;87.72
72570;BME280;60594;50.204;8.844;2023-07-02T04:50:54;99355.34;;;14.96;87.29
72570;BME280;60594;50.204;8.844;2023-07-02T04:53:21;99349.50;;;14.93;87.22
72570;BME280;60594;50.204;8.844;2023-07-02T04:55:47;99352.19;;;14.93;87.45
72570;BME280;60594;50.204;8.844;2023-07-02T04:58:14;99355.84;;;15.00;86.73
72570;BME280;60594;50.204;8.844;2023-07-02T05:00:40;99356.34;;;15.03;86.22
72570;BME280;60594;50.204;8.844;2023-07-02T05:03:07;99353.00;;;14.93;86.75
72570;BME280;60594;50.204;8.844;2023-07-02T05:05:34;99355.19;;;14.98;85.85
72570;BME280;60594;50.204;8.844;2023-07-02T05:08:00;99362.22;;;14.99;85.91
72570;BME280;60594;50.204;8.844;2023-07-02T05:10:27;99359.88;;;15.04;84.93
72570;BME280;60594;50.204;8.844;2023-07-02T05:12:53;99370.59;;;15.04;84.83
72570;BME280;60594;50.204;8.844;2023-07-02T05:15:20;99371.59;;;15.03;84.68
72570;BME280;60594;50.204;8.844;2023-07-02T05:17:46;99365.41;;;15.02;84.46
72570;BME280;60594;50.204;8.844;2023-07-02T05:20:13;99374.44;;;15.01;84.59
72570;BME280;60594;50.204;8.844;2023-07-02T05:22:39;99386.19;;;15.00;84.47
72570;BME280;60594;50.204;8.844;2023-07-02T05:25:06;99386.53;;;15.05;83.99
72570;BME280;60594;50.204;8.844;2023-07-02T05:27:33;99388.69;;;15.10;83.63
72570;BME280;60594;50.204;8.844;2023-07-02T05:30:00;99384.00;;;15.12;83.92
72570;BME280;60594;50.204;8.844;2023-07-02T05:32:26;99383.50;;;15.08;84.23
72570;BME280;60594;50.204;8.844;2023-07-02T05:34:53;99385.53;;;15.06;83.95
72570;BME280;60594;50.204;8.844;2023-07-02T05:37:19;99390.88;;;15.06;84.27
72570;BME280;60594;50.204;8.844;2023-07-02T05:39:46;99386.34;;;15.15;84.06
72570;BME280;60594;50.204;8.844;2023-07-02T05:42:12;99391.53;;;15.16;84.44
72570;BME280;60594;50.204;8.844;2023-07-02T05:44:39;99390.03;;;15.22;83.00
72570;BME280;60594;50.204;8.844;2023-07-02T05:47:05;99384.81;;;15.20;83.82
72570;BME280;60594;50.204;8.844;2023-07-02T05:49:32;99392.88;;;15.20;83.90
72570;BME280;60594;50.204;8.844;2023-07-02T05:51:58;99389.31;;;15.28;83.12
72570;BME280;60594;50.204;8.844;2023-07-02T05:54:25;99391.34;;;15.26;83.82
72570;BME280;60594;50.204;8.844;2023-07-02T05:56:51;99389.66;;;15.33;82.89
72570;BME280;60594;50.204;8.844;2023-07-02T05:59:17;99394.50;;;15.37;81.93
72570;BME280;60594;50.204;8.844;2023-07-02T06:01:45;99400.41;;;15.41;81.95
72570;BME280;60594;50.204;8.844;2023-07-02T06:04:12;99396.88;;;15.40;81.25
72570;BME280;60594;50.204;8.844;2023-07-02T06:06:38;99403.91;;;15.41;80.73
72570;BME280;60594;50.204;8.844;2023-07-02T06:09:05;99404.56;;;15.43;81.26
72570;BME280;60594;50.204;8.844;2023-07-02T06:11:32;99413.97;;;15.47;81.10
72570;BME280;60594;50.204;8.844;2023-07-02T06:13:59;99420.66;;;15.51;81.04
72570;BME280;60594;50.204;8.844;2023-07-02T06:16:25;99424.19;;;15.52;81.09
72570;BME280;60594;50.204;8.844;2023-07-02T06:18:52;99431.06;;;15.54;81.22
72570;BME280;60594;50.204;8.844;2023-07-02T06:21:18;99431.53;;;15.58;81.73
72570;BME280;60594;50.204;8.844;2023-07-02T06:23:46;99429.56;;;15.52;81.51
72570;BME280;60594;50.204;8.844;2023-07-02T06:26:12;99435.91;;;15.59;81.88
72570;BME280;60594;50.204;8.844;2023-07-02T06:28:39;99436.06;;;15.65;80.58
72570;BME280;60594;50.204;8.844;2023-07-02T06:31:05;99431.97;;;15.77;79.74
72570;BME280;60594;50.204;8.844;2023-07-02T06:33:33;99434.16;;;15.82;78.87
72570;BME280;60594;50.204;8.844;2023-07-02T06:36:00;99431.59;;;15.88;79.04
72570;BME280;60594;50.204;8.844;2023-07-02T06:38:26;99428.50;;;15.99;78.33
72570;BME280;60594;50.204;8.844;2023-07-02T06:40:54;99431.47;;;16.12;77.95
72570;BME280;60594;50.204;8.844;2023-07-02T06:43:20;99429.44;;;16.14;77.62
72570;BME280;60594;50.204;8.844;2023-07-02T06:45:47;99436.91;;;16.27;77.05
72570;BME280;60594;50.204;8.844;2023-07-02T06:48:13;99435.03;;;16.35;77.19
72570;BME280;60594;50.204;8.844;2023-07-02T06:50:44;99437.19;;;16.40;76.23
72570;BME280;60594;50.204;8.844;2023-07-02T06:53:12;99433.53;;;16.33;76.91
72570;BME280;60594;50.204;8.844;2023-07-02T06:55:38;99439.38;;;16.36;76.98
72570;BME280;60594;50.204;8.844;2023-07-02T06:58:05;99434.34;;;16.33;77.14
72570;BME280;60594;50.204;8.844;2023-07-02T07:00:33;99438.34;;;16.37;76.74
72570;BME280;60594;50.204;8.844;2023-07-02T07:03:04;99442.38;;;16.41;78.28
72570;BME280;60594;50.204;8.844;2023-07-02T07:05:31;99454.56;;;16.60;76.12
72570;BME280;60594;50.204;8.844;2023-07-02T07:08:01;99445.94;;;16.64;76.41
72570;BME280;60594;50.204;8.844;2023-07-02T07:10:28;99449.72;;;16.78;75.51
72570;BME280;60594;50.204;8.844;2023-07-02T07:13:01;99454.47;;;16.91;75.05
72570;BME280;60594;50.204;8.844;2023-07-02T07:15:33;99464.03;;;16.93;75.59
72570;BME280;60594;50.204;8.844;2023-07-02T07:18:03;99462.56;;;16.91;75.11
72570;BME280;60594;50.204;8.844;2023-07-02T07:20:30;99452.16;;;16.88;75.23
72570;BME280;60594;50.204;8.844;2023-07-02T07:22:57;99461.94;;;17.03;74.60
72570;BME280;60594;50.204;8.844;2023-07-02T07:25:23;99465.38;;;17.12;75.21
72570;BME280;60594;50.204;8.844;2023-07-02T07:27:51;99465.16;;;17.21;74.67
72570;BME280;60594;50.204;8.844;2023-07-02T07:30:18;99465.69;;;17.31;74.74
72570;BME280;60594;50.204;8.844;2023-07-02T07:32:50;99461.44;;;17.37;72.21
72570;BME280;60594;50.204;8.844;2023-07-02T07:35:20;99466.19;;;17.35;72.78
72570;BME280;60594;50.204;8.844;2023-07-02T07:37:48;99463.63;;;17.19;73.41
72570;BME280;60594;50.204;8.844;2023-07-02T07:40:15;99469.06;;;17.33;74.26
72570;BME280;60594;50.204;8.844;2023-07-02T07:42:41;99470.31;;;17.45;73.53
72570;BME280;60594;50.204;8.844;2023-07-02T07:45:11;99480.47;;;17.58;72.18
72570;BME280;60594;50.204;8.844;2023-07-02T07:47:38;99479.69;;;17.49;72.82
72570;BME280;60594;50.204;8.844;2023-07-02T07:50:06;99475.16;;;17.50;73.08
72570;BME280;60594;50.204;8.844;2023-07-02T07:52:40;99477.31;;;17.54;72.42
72570;BME280;60594;50.204;8.844;2023-07-02T07:55:07;99478.97;;;17.55;71.87
72570;BME280;60594;50.204;8.844;2023-07-02T07:57:35;99478.13;;;17.55;73.27
72570;BME280;60594;50.204;8.844;2023-07-02T08:00:03;99475.53;;;17.47;72.84
72570;BME280;60594;50.204;8.844;2023-07-02T08:02:45;99478.88;;;17.49;72.38
72570;BME280;60594;50.204;8.844;2023-07-02T08:05:13;99480.47;;;17.58;72.96
72570;BME280;60594;50.204;8.844;2023-07-02T08:07:40;99485.19;;;17.56;72.58
72570;BME280;60594;50.204;8.844;2023-07-02T08:10:10;99474.22;;;17.57;72.34
72570;BME280;60594;50.204;8.844;2023-07-02T08:12:36;99477.19;;;17.77;72.08
72570;BME280;60594;50.204;8.844;2023-07-02T08:15:03;99476.91;;;17.86;72.06
72570;BME280;60594;50.204;8.844;2023-07-02T08:17:30;99477.56;;;18.03;72.19
72570;BME280;60594;50.204;8.844;2023-07-02T08:19:57;99481.84;;;18.12;71.11
72570;BME280;60594;50.204;8.844;2023-07-02T08:22:24;99475.34;;;18.06;70.36
72570;BME280;60594;50.204;8.844;2023-07-02T08:24:50;99479.97;;;17.83;71.50
72570;BME280;60594;50.204;8.844;2023-07-02T08:27:17;99481.56;;;17.92;71.19
72570;BME280;60594;50.204;8.844;2023-07-02T08:29:47;99487.41;;;17.96;69.41
72570;BME280;60594;50.204;8.844;2023-07-02T08:32:14;99476.06;;;18.00;70.10
72570;BME280;60594;50.204;8.844;2023-07-02T08:34:41;99483.03;;;18.09;70.08
72570;BME280;60594;50.204;8.844;2023-07-02T08:37:07;99489.09;;;18.11;70.01
72570;BME280;60594;50.204;8.844;2023-07-02T08:39:34;99491.66;;;18.19;70.02
72570;BME280;60594;50.204;8.844;2023-07-02T08:42:02;99490.06;;;18.25;69.68
72570;BME280;60594;50.204;8.844;2023-07-02T08:44:29;99484.75;;;18.31;69.97
72570;BME280;60594;50.204;8.844;2023-07-02T08:46:55;99480.41;;;18.45;69.21
72570;BME280;60594;50.204;8.844;2023-07-02T08:49:23;99479.97;;;18.62;68.86
72570;BME280;60594;50.204;8.844;2023-07-02T08:51:50;99486.34;;;18.76;66.85
72570;BME280;60594;50.204;8.844;2023-07-02T08:54:17;99481.72;;;18.91;67.19
72570;BME280;60594;50.204;8.844;2023-07-02T08:56:45;99474.75;;;19.03;66.88
72570;BME280;60594;50.204;8.844;2023-07-02T08:59:13;99481.63;;;19.26;63.58
72570;BME280;60594;50.204;8.844;2023-07-02T09:04:19;99489.59;;;19.34;62.27
72570;BME280;60594;50.204;8.844;2023-07-02T09:06:48;99486.47;;;19.31;63.47
72570;BME280;60594;50.204;8.844;2023-07-02T09:09:15;99496.34;;;19.24;63.80
72570;BME280;60594;50.204;8.844;2023-07-02T09:11:49;99503.31;;;19.12;64.13
72570;BME280;60594;50.204;8.844;2023-07-02T09:14:30;99507.44;;;19.08;64.27
72570;BME280;60594;50.204;8.844;2023-07-02T09:17:08;99507.50;;;18.93;65.26
72570;BME280;60594;50.204;8.844;2023-07-02T09:19:49;99496.25;;;18.90;64.52
72570;BME280;60594;50.204;8.844;2023-07-02T09:22:16;99503.97;;;18.93;64.49
72570;BME280;60594;50.204;8.844;2023-07-02T09:24:51;99505.25;;;18.97;65.51
72570;BME280;60594;50.204;8.844;2023-07-02T09:27:19;99509.94;;;19.09;62.50
72570;BME280;60594;50.204;8.844;2023-07-02T09:29:51;99508.72;;;19.12;63.44
72570;BME280;60594;50.204;8.844;2023-07-02T09:32:25;99497.22;;;19.24;63.91
72570;BME280;60594;50.204;8.844;2023-07-02T09:34:55;99507.44;;;19.56;63.41
72570;BME280;60594;50.204;8.844;2023-07-02T09:37:24;99503.19;;;19.68;61.81
72570;BME280;60594;50.204;8.844;2023-07-02T09:39:51;99503.44;;;19.80;61.18
72570;BME280;60594;50.204;8.844;2023-07-02T09:42:19;99490.19;;;19.85;61.46
72570;BME280;60594;50.204;8.844;2023-07-02T09:44:46;99492.22;;;20.17;58.10
72570;BME280;60594;50.204;8.844;2023-07-02T09:47:14;99483.22;;;20.57;57.66
72570;BME280;60594;50.204;8.844;2023-07-02T09:49:53;99490.22;;;20.92;57.38
72570;BME280;60594;50.204;8.844;2023-07-02T09:52:20;99470.22;;;20.93;56.51
72570;BME280;60594;50.204;8.844;2023-07-02T09:54:47;99478.13;;;20.95;56.51
72570;BME280;60594;50.204;8.844;2023-07-02T09:57:13;99482.22;;;20.78;53.73
72570;BME280;60594;50.204;8.844;2023-07-02T09:59:40;99475.31;;;20.62;54.35
72570;BME280;60594;50.204;8.844;2023-07-02T10:02:09;99491.53;;;20.43;54.46
72570;BME280;60594;50.204;8.844;2023-07-02T10:04:43;99484.19;;;20.30;54.37
72570;BME280;60594;50.204;8.844;2023-07-02T10:07:11;99478.31;;;20.20;54.63
72570;BME280;60594;50.204;8.844;2023-07-02T10:09:41;99481.00;;;20.20;54.83
72570;BME280;60594;50.204;8.844;2023-07-02T10:14:53;99486.09;;;20.02;54.62
72570;BME280;60594;50.204;8.844;2023-07-02T10:19:57;99485.22;;;19.95;56.75
72570;BME280;60594;50.204;8.844;2023-07-02T10:22:23;99487.47;;;19.85;57.81
72570;BME280;60594;50.204;8.844;2023-07-02T10:24:58;99484.22;;;19.96;57.15
72570;BME280;60594;50.204;8.844;2023-07-02T10:27:40;99489.38;;;19.97;56.41
72570;BME280;60594;50.204;8.844;2023-07-02T10:30:09;99485.66;;;19.98;59.17
72570;BME280;60594;50.204;8.844;2023-07-02T10:32:37;99483.19;;;20.03;57.91
72570;BME280;60594;50.204;8.844;2023-07-02T10:35:18;99484.75;;;20.13;57.50
72570;BME280;60594;50.204;8.844;2023-07-02T10:37:44;99479.56;;;20.18;52.96
72570;BME280;60594;50.204;8.844;2023-07-02T10:40:12;99484.59;;;20.27;53.47
72570;BME280;60594;50.204;8.844;2023-07-02T10:42:50;99486.72;;;20.45;53.50
72570;BME280;60594;50.204;8.844;2023-07-02T10:45:17;99483.88;;;20.59;53.10
72570;BME280;60594;50.204;8.844;2023-07-02T10:47:44;99471.38;;;20.65;53.17
72570;BME280;60594;50.204;8.844;2023-07-02T10:50:21;99474.34;;;20.83;52.05
72570;BME280;60594;50.204;8.844;2023-07-02T10:52:48;99477.09;;;20.96;51.14
72570;BME280;60594;50.204;8.844;2023-07-02T10:55:25;99467.50;;;21.00;50.32
72570;BME280;60594;50.204;8.844;2023-07-02T10:58:03;99470.66;;;21.03;50.80
72570;BME280;60594;50.204;8.844;2023-07-02T11:00:30;99471.69;;;21.09;50.43
72570;BME280;60594;50.204;8.844;2023-07-02T11:02:57;99468.34;;;21.26;50.72
72570;BME280;60594;50.204;8.844;2023-07-02T11:05:24;99476.88;;;21.69;48.76
72570;BME280;60594;50.204;8.844;2023-07-02T11:07:51;99465.81;;;21.64;48.97
72570;BME280;60594;50.204;8.844;2023-07-02T11:10:23;99468.34;;;21.52;48.09
72570;BME280;60594;50.204;8.844;2023-07-02T11:12:51;99467.09;;;21.42;49.98
72570;BME280;60594;50.204;8.844;2023-07-02T11:15:18;99475.44;;;21.34;49.46
72570;BME280;60594;50.204;8.844;2023-07-02T11:17:44;99471.06;;;21.52;49.28
72570;BME280;60594;50.204;8.844;2023-07-02T11:20:12;99472.69;;;21.79;48.12
72570;BME280;60594;50.204;8.844;2023-07-02T11:22:40;99468.44;;;22.16;48.37
72570;BME280;60594;50.204;8.844;2023-07-02T11:25:26;99467.06;;;22.38;46.70
72570;BME280;60594;50.204;8.844;2023-07-02T11:28:02;99463.44;;;22.57;46.33
72570;BME280;60594;50.204;8.844;2023-07-02T11:30:29;99456.31;;;22.62;45.26
72570;BME280;60594;50.204;8.844;2023-07-02T11:32:55;99460.53;;;22.45;45.86
72570;BME280;60594;50.204;8.844;2023-07-02T11:35:34;99458.44;;;22.54;44.42
72570;BME280;60594;50.204;8.844;2023-07-02T11:38:01;99457.50;;;22.29;44.61
72570;BME280;60594;50.204;8.844;2023-07-02T11:40:28;99465.75;;;22.03;45.50
72570;BME280;60594;50.204;8.844;2023-07-02T11:42:54;99464.31;;;21.87;46.83
72570;BME280;60594;50.204;8.844;2023-07-02T11:45:21;99468.28;;;21.98;46.44
72570;BME280;60594;50.204;8.844;2023-07-02T11:47:47;99457.56;;;22.16;46.23
72570;BME280;60594;50.204;8.844;2023-07-02T11:50:14;99458.50;;;22.34;45.84
72570;BME280;60594;50.204;8.844;2023-07-02T11:52:40;99462.88;;;22.35;46.66
72570;BME280;60594;50.204;8.844;2023-07-02T11:55:07;99460.22;;;22.29;45.03
72570;BME280;60594;50.204;8.844;2023-07-02T11:57:34;99460.06;;;22.17;45.34
72570;BME280;60594;50.204;8.844;2023-07-02T12:00:00;99465.22;;;22.32;46.28
72570;BME280;60594;50.204;8.844;2023-07-02T12:02:26;99458.84;;;22.57;42.14
72570;BME280;60594;50.204;8.844;2023-07-02T12:04:53;99471.50;;;22.70;41.89
72570;BME280;60594;50.204;8.844;2023-07-02T12:07:20;99467.72;;;22.77;42.21
72570;BME280;60594;50.204;8.844;2023-07-02T12:09:46;99460.53;;;22.52;42.63
72570;BME280;60594;50.204;8.844;2023-07-02T12:12:13;99454.59;;;22.24;44.23
72570;BME280;60594;50.204;8.844;2023-07-02T12:14:39;99463.81;;;22.16;45.77
72570;BME280;60594;50.204;8.844;2023-07-02T12:17:10;99464.25;;;22.07;44.01
72570;BME280;60594;50.204;8.844;2023-07-02T12:19:39;99454.84;;;22.09;44.58
72570;BME280;60594;50.204;8.844;2023-07-02T12:22:06;99466.31;;;22.18;44.96
72570;BME280;60594;50.204;8.844;2023-07-02T12:24:33;99466.56;;;22.10;45.14
72570;BME280;60594;50.204;8.844;2023-07-02T12:27:00;99467.63;;;22.02;44.62
72570;BME280;60594;50.204;8.844;2023-07-02T12:29:26;99462.31;;;22.20;43.89
72570;BME280;60594;50.204;8.844;2023-07-02T12:31:53;99460.53;;;22.58;43.99
72570;BME280;60594;50.204;8.844;2023-07-02T12:34:19;99462.22;;;22.84;42.61
72570;BME280;60594;50.204;8.844;2023-07-02T12:36:46;99465.38;;;22.81;41.36
72570;BME280;60594;50.204;8.844;2023-07-02T12:39:12;99455.94;;;22.90;42.64
72570;BME280;60594;50.204;8.844;2023-07-02T12:41:39;99453.00;;;22.91;41.20
72570;BME280;60594;50.204;8.844;2023-07-02T12:44:06;99456.84;;;22.77;40.46
72570;BME280;60594;50.204;8.844;2023-07-02T12:46:32;99455.09;;;22.89;38.53
72570;BME280;60594;50.204;8.844;2023-07-02T12:48:59;99459.66;;;22.95;37.13
72570;BME280;60594;50.204;8.844;2023-07-02T12:51:25;99457.16;;;22.94;37.81
72570;BME280;60594;50.204;8.844;2023-07-02T12:53:52;99451.78;;;22.87;38.52
72570;BME280;60594;50.204;8.844;2023-07-02T12:56:18;99462.53;;;23.00;38.17
72570;BME280;60594;50.204;8.844;2023-07-02T12:58:45;99470.50;;;23.27;38.68
72570;BME280;60594;50.204;8.844;2023-07-02T13:01:11;99471.50;;;23.57;38.75
72570;BME280;60594;50.204;8.844;2023-07-02T13:03:37;99465.69;;;23.53;37.50
72570;BME280;60594;50.204;8.844;2023-07-02T13:06:04;99467.34;;;23.30;38.17
72570;BME280;60594;50.204;8.844;2023-07-02T13:08:31;99470.63;;;23.38;38.84
72570;BME280;60594;50.204;8.844;2023-07-02T13:10:57;99467.84;;;23.45;39.71
72570;BME280;60594;50.204;8.844;2023-07-02T13:13:24;99477.44;;;23.47;40.19